Sheridan Park, Washington
Current Conditions -  °F | °C
As of 6:35 AM on Monday 26 Jan 2015 (Local Time) from KPWT Reporting Station
Overcast Overcast  
Wind Chill: 43°   Ceiling: 200
Heat Index: 43°   Visibility: 0.5mi
Dew Point: 43°   Wind: 3mph
Humidity: 100%   Direction: 220°SW
Pressure: 29.98"   Gusts: NA
Location:  47.6314°N, 122.638°W
Report Text: KPWT 261435Z AUTO 22003KT 1/2SM OVC002 06/06 A2998 RMK AO1
Loading
Personal Weather Stations






























Interactive Weather Map New forecast layout! Learn more

10-Day Weather Forecast

Advertisements
Track Severe Weather on mobile